createdAt,value
2022-10-11T00:01:32.863Z,1.90
2022-10-11T00:04:36.054Z,1.60
2022-10-11T00:07:40.740Z,1.73
2022-10-11T00:10:44.012Z,2.28
2022-10-11T00:13:47.517Z,1.60
2022-10-11T00:16:50.825Z,2.38
2022-10-11T00:19:53.910Z,2.33
2022-10-11T00:22:58.436Z,2.47
2022-10-11T00:26:04.969Z,1.73
2022-10-11T00:29:08.823Z,1.60
2022-10-11T00:32:12.235Z,1.33
2022-10-11T00:35:15.240Z,2.53
2022-10-11T00:38:19.896Z,1.92
2022-10-11T00:41:23.897Z,1.75
2022-10-11T00:44:30.670Z,2.00
2022-10-11T00:47:33.820Z,1.60
2022-10-11T00:50:38.251Z,1.88
2022-10-11T00:53:44.246Z,1.73
2022-10-11T00:56:54.172Z,1.67
2022-10-11T00:59:58.270Z,1.80
2022-10-11T01:03:03.538Z,1.83
2022-10-11T01:06:07.800Z,1.75
2022-10-11T01:09:14.605Z,1.83
2022-10-11T01:12:24.561Z,2.05
2022-10-11T01:15:39.992Z,1.75
2022-10-11T01:18:53.072Z,1.42
2022-10-11T01:22:13.925Z,2.10
2022-10-11T01:25:30.889Z,2.17
2022-10-11T01:28:49.656Z,2.13
2022-10-11T01:32:03.307Z,2.10
2022-10-11T01:35:17.498Z,1.90
2022-10-11T01:38:32.571Z,2.35
2022-10-11T01:41:41.256Z,1.80
2022-10-11T01:44:50.081Z,2.10
2022-10-11T01:48:07.560Z,1.70
2022-10-11T01:51:11.094Z,1.90
2022-10-11T01:58:33.138Z,2.50
2022-10-11T02:01:52.143Z,2.25
2022-10-11T02:05:07.185Z,1.85
2022-10-11T02:08:23.341Z,1.98
2022-10-11T02:11:31.018Z,2.28
2022-10-11T02:14:40.302Z,1.92
2022-10-11T02:17:50.999Z,2.17
2022-10-11T02:20:58.353Z,1.92
2022-10-11T02:24:09.189Z,1.85
2022-10-11T02:27:13.491Z,2.10
2022-10-11T02:30:18.350Z,2.75
2022-10-11T02:33:27.863Z,2.63
2022-10-11T02:36:45.304Z,1.73
2022-10-11T02:39:55.351Z,1.88
2022-10-11T02:43:05.299Z,2.35
2022-10-11T02:46:11.309Z,1.65
2022-10-11T02:49:15.930Z,2.20
2022-10-11T02:52:21.125Z,1.83
2022-10-11T02:55:25.387Z,2.35
2022-10-11T03:01:31.612Z,2.42
2022-10-11T03:04:34.934Z,2.20
2022-10-11T03:07:39.323Z,1.63
2022-10-11T03:10:43.086Z,2.03
2022-10-11T03:13:46.335Z,2.00
2022-10-11T03:16:51.545Z,2.73
2022-10-11T03:19:55.003Z,2.15
2022-10-11T03:22:59.413Z,2.20
2022-10-11T03:26:02.977Z,2.33
2022-10-11T03:29:06.324Z,2.13
2022-10-11T03:32:09.348Z,2.33
2022-10-11T03:35:12.486Z,2.72
2022-10-11T03:38:20.800Z,2.42
2022-10-11T03:41:24.158Z,2.53
2022-10-11T03:44:28.893Z,2.70
2022-10-11T03:47:32.781Z,2.67
2022-10-11T03:50:36.561Z,2.20
2022-10-11T03:53:41.613Z,2.50
2022-10-11T03:56:44.764Z,2.08
2022-10-11T03:59:48.086Z,2.60
2022-10-11T04:02:51.191Z,2.47
2022-10-11T04:05:54.401Z,2.45
2022-10-11T04:08:58.929Z,2.10
2022-10-11T04:12:02.586Z,1.98
2022-10-11T04:15:08.919Z,2.47
2022-10-11T04:18:12.278Z,2.38
2022-10-11T04:21:15.467Z,2.43
2022-10-11T04:24:19.875Z,2.53
2022-10-11T04:27:23.217Z,2.25
2022-10-11T04:30:29.160Z,2.65
2022-10-11T04:33:32.717Z,2.72
2022-10-11T04:36:38.962Z,2.20
2022-10-11T04:39:43.463Z,2.30
2022-10-11T04:42:46.475Z,2.47
2022-10-11T04:45:54.628Z,2.53
2022-10-11T04:48:59.588Z,2.65
2022-10-11T04:55:08.433Z,3.15
2022-10-11T04:58:11.523Z,2.60
2022-10-11T05:01:15.181Z,2.13
2022-10-11T05:04:18.762Z,2.35
2022-10-11T05:07:21.865Z,2.47
2022-10-11T05:10:26.353Z,2.75
2022-10-11T05:13:30.574Z,2.85
2022-10-11T05:19:36.541Z,2.17
2022-10-11T05:22:39.747Z,2.10
2022-10-11T05:25:44.515Z,3.10
2022-10-11T05:28:48.481Z,2.00
2022-10-11T05:31:51.607Z,2.42
2022-10-11T05:34:54.681Z,2.45
2022-10-11T05:37:57.794Z,2.72
2022-10-11T05:41:03.865Z,2.70
2022-10-11T05:44:09.796Z,2.53
2022-10-11T05:47:13.438Z,2.63
2022-10-11T05:50:20.790Z,3.55
2022-10-11T05:53:27.541Z,2.38
2022-10-11T05:56:32.212Z,2.57
2022-10-11T05:59:37.623Z,2.83
2022-10-11T06:02:41.461Z,1.98
2022-10-11T06:05:45.570Z,2.35
2022-10-11T06:11:53.980Z,2.45
2022-10-11T06:14:57.117Z,2.40
2022-10-11T06:18:00.601Z,2.33
2022-10-11T06:21:04.154Z,2.47
2022-10-11T06:24:09.349Z,2.70
2022-10-11T06:27:14.223Z,2.38
2022-10-11T06:30:18.211Z,2.03
2022-10-11T06:33:22.572Z,2.55
2022-10-11T06:36:28.800Z,2.78
2022-10-11T06:39:31.926Z,2.60
2022-10-11T06:42:37.179Z,2.20
2022-10-11T06:45:41.665Z,1.63
2022-10-11T06:48:47.397Z,2.35
2022-10-11T06:51:50.872Z,2.33
2022-10-11T06:54:54.692Z,2.67
2022-10-11T06:57:59.506Z,3.55
2022-10-11T07:01:04.714Z,2.20
2022-10-11T07:04:08.431Z,2.42
2022-10-11T07:07:14.766Z,2.40
2022-10-11T07:10:18.234Z,2.30
2022-10-11T07:13:42.591Z,2.53
2022-10-11T07:16:47.914Z,1.88
2022-10-11T07:19:51.084Z,2.47
2022-10-11T07:22:54.341Z,2.47
2022-10-11T07:25:57.441Z,2.20
2022-10-11T07:29:02.315Z,2.92
2022-10-11T07:32:05.872Z,2.40
2022-10-11T07:35:09.423Z,2.45
2022-10-11T07:38:13.406Z,2.53
2022-10-11T07:41:16.629Z,2.10
2022-10-11T07:44:21.158Z,2.50
2022-10-11T07:47:25.939Z,2.33
2022-10-11T07:50:31.887Z,2.72
2022-10-11T07:53:40.802Z,2.22
2022-10-11T07:56:43.873Z,1.60
2022-10-11T07:59:50.343Z,1.92
2022-10-11T08:02:53.810Z,2.15
2022-10-11T08:06:02.631Z,2.08
2022-10-11T08:09:06.855Z,2.08
2022-10-11T08:12:11.707Z,2.38
2022-10-11T08:15:17.405Z,2.20
2022-10-11T08:18:22.252Z,2.53
2022-10-11T08:21:27.700Z,2.38
2022-10-11T08:24:37.342Z,2.63
2022-10-11T08:27:42.085Z,1.73
2022-10-11T08:30:55.815Z,1.70
2022-10-11T08:33:59.225Z,1.80
2022-10-11T08:37:02.362Z,1.90
2022-10-11T08:40:07.633Z,2.17
2022-10-11T08:43:26.564Z,1.95
2022-10-11T08:46:37.911Z,1.92
2022-10-11T08:49:42.362Z,2.50
2022-10-11T08:52:51.760Z,1.70
2022-10-11T08:55:56.185Z,1.95
2022-10-11T08:59:07.757Z,1.90
2022-10-11T09:02:38.918Z,1.38
2022-10-11T09:06:07.272Z,2.08
2022-10-11T09:09:46.969Z,2.15
2022-10-11T09:13:05.356Z,2.22
2022-10-11T09:16:23.279Z,1.80
2022-10-11T09:20:05.603Z,1.90
2022-10-11T09:23:24.448Z,2.75
2022-10-11T09:26:34.003Z,2.00
2022-10-11T09:29:56.854Z,2.20
2022-10-11T09:33:12.448Z,1.50
2022-10-11T09:36:26.590Z,2.00
2022-10-11T09:39:34.381Z,1.80
2022-10-11T09:42:37.548Z,1.58
2022-10-11T09:45:49.143Z,1.58
2022-10-11T09:48:56.220Z,2.58
2022-10-11T09:52:05.141Z,1.80
2022-10-11T09:55:09.382Z,1.63
2022-10-11T10:01:33.463Z,1.83
2022-10-11T10:04:36.725Z,2.05
2022-10-11T10:08:04.288Z,1.63
2022-10-11T10:11:10.594Z,1.50
2022-10-11T10:14:22.550Z,1.50
2022-10-11T10:17:25.701Z,1.55
2022-10-11T10:20:33.086Z,1.60
2022-10-11T10:23:38.808Z,1.35
2022-10-11T10:26:41.948Z,1.42
2022-10-11T10:30:02.784Z,2.00
2022-10-11T10:33:11.997Z,1.52
2022-10-11T10:36:22.939Z,1.80
2022-10-11T10:39:37.916Z,1.73
2022-10-11T10:42:41.236Z,1.48
2022-10-11T10:46:30.815Z,1.70
2022-10-11T10:49:59.595Z,1.67
2022-10-11T10:53:20.896Z,2.22
2022-10-11T10:56:34.365Z,1.50
2022-10-11T11:00:02.257Z,1.43
2022-10-11T11:03:10.986Z,1.65
2022-10-11T11:06:26.515Z,1.02
2022-10-11T11:09:46.608Z,1.60
2022-10-11T11:13:07.602Z,1.60
2022-10-11T11:16:21.258Z,1.83
2022-10-11T11:19:46.947Z,1.60
2022-10-11T11:23:01.104Z,1.55
2022-10-11T11:26:14.000Z,1.65
2022-10-11T11:29:39.576Z,1.85
2022-10-11T11:32:59.411Z,1.20
2022-10-11T11:36:12.142Z,1.90
2022-10-11T11:39:21.669Z,1.42
2022-10-11T11:42:32.558Z,1.55
2022-10-11T11:45:48.636Z,0.93
2022-10-11T11:48:57.439Z,1.42
2022-10-11T11:52:01.515Z,1.20
2022-10-11T11:58:36.340Z,1.13
2022-10-11T12:01:52.784Z,1.77
2022-10-11T12:04:57.528Z,1.48
2022-10-11T12:08:05.997Z,1.00
2022-10-11T12:11:22.886Z,1.58
2022-10-11T12:14:38.717Z,1.50
2022-10-11T12:18:06.327Z,1.65
2022-10-11T12:21:31.883Z,1.42
2022-10-11T12:24:57.230Z,1.70
2022-10-11T12:28:03.346Z,1.30
2022-10-11T12:31:21.183Z,1.70
2022-10-11T12:34:38.666Z,1.50
2022-10-11T12:37:54.398Z,1.38
2022-10-11T12:41:01.471Z,1.70
2022-10-11T12:44:23.286Z,1.50
2022-10-11T12:47:42.882Z,1.90
2022-10-11T12:51:10.990Z,1.55
2022-10-11T12:54:55.325Z,1.30
2022-10-11T12:58:30.426Z,1.57
2022-10-11T13:01:38.145Z,1.55
2022-10-11T13:04:41.897Z,2.45
2022-10-11T13:07:47.084Z,1.35
2022-10-11T13:10:50.625Z,1.63
2022-10-11T13:14:01.174Z,2.00
2022-10-11T13:17:17.580Z,1.35
2022-10-11T13:20:26.628Z,1.55
2022-10-11T13:23:39.643Z,1.77
2022-10-11T13:26:45.116Z,1.48
2022-10-11T13:29:50.826Z,1.33
2022-10-11T13:32:55.062Z,1.60
2022-10-11T13:35:58.499Z,1.52
2022-10-11T13:39:04.503Z,1.20
2022-10-11T13:42:13.940Z,1.27
2022-10-11T13:45:22.212Z,1.20
2022-10-11T13:48:30.750Z,1.30
2022-10-11T13:51:37.981Z,0.88
2022-10-11T13:55:11.422Z,1.38
2022-10-11T13:58:26.638Z,1.55
2022-10-11T14:01:41.691Z,1.27
2022-10-11T14:04:45.151Z,1.20
2022-10-11T14:07:49.440Z,1.50
2022-10-11T14:10:57.786Z,1.35
2022-10-11T14:14:31.071Z,1.20
2022-10-11T14:17:42.738Z,1.50
2022-10-11T14:20:46.140Z,1.10
2022-10-11T14:23:53.153Z,0.80
2022-10-11T14:26:57.659Z,1.42
2022-10-11T14:33:27.111Z,1.73
2022-10-11T14:36:31.101Z,1.40
2022-10-11T14:39:34.540Z,1.40
2022-10-11T14:42:37.733Z,0.93
2022-10-11T14:45:42.228Z,0.98
2022-10-11T14:49:00.686Z,1.40
2022-10-11T14:52:06.540Z,1.65
2022-10-11T14:55:09.760Z,1.48
2022-10-11T14:58:16.201Z,1.67
2022-10-11T15:01:21.714Z,1.42
2022-10-11T15:04:28.121Z,1.00
2022-10-11T15:07:31.332Z,1.23
2022-10-11T15:10:38.512Z,1.48
2022-10-11T15:13:42.348Z,1.40
2022-10-11T15:16:47.444Z,1.05
2022-10-11T15:19:50.938Z,1.40
2022-10-11T15:22:55.446Z,1.55
2022-10-11T15:25:58.593Z,1.13
2022-10-11T15:29:02.209Z,1.30
2022-10-11T15:32:07.742Z,1.50
2022-10-11T15:35:11.398Z,1.20
2022-10-11T15:38:19.287Z,1.30
2022-10-11T15:41:23.960Z,1.25
2022-10-11T15:44:27.457Z,0.93
2022-10-11T15:47:31.955Z,1.27
2022-10-11T15:50:37.712Z,1.00
2022-10-11T15:53:40.932Z,1.45
2022-10-11T15:56:44.369Z,1.10
2022-10-11T15:59:47.495Z,0.90
2022-10-11T16:02:54.195Z,1.40
2022-10-11T16:06:03.885Z,0.90
2022-10-11T16:09:08.428Z,1.00
2022-10-11T16:12:11.608Z,1.17
2022-10-11T16:15:16.460Z,0.70
2022-10-11T16:18:22.268Z,0.73
2022-10-11T16:21:25.944Z,1.17
2022-10-11T16:24:29.183Z,0.93
2022-10-11T16:27:33.000Z,0.80
2022-10-11T16:30:38.961Z,0.90
2022-10-11T16:33:46.582Z,1.48
2022-10-11T16:36:49.697Z,1.27
2022-10-11T16:39:52.717Z,1.10
2022-10-11T16:42:55.834Z,1.30
2022-10-11T16:45:59.991Z,1.42
2022-10-11T16:49:05.701Z,0.95
2022-10-11T16:52:10.794Z,1.10
2022-10-11T16:55:13.891Z,1.10
2022-10-11T16:58:17.488Z,1.25
2022-10-11T17:01:20.665Z,1.05
2022-10-11T17:04:28.349Z,1.13
2022-10-11T17:07:33.248Z,0.90
2022-10-11T17:10:40.310Z,1.27
2022-10-11T17:13:44.259Z,1.27
2022-10-11T17:16:47.620Z,1.42
2022-10-11T17:19:52.194Z,1.23
2022-10-11T17:22:55.567Z,1.63
2022-10-11T17:25:59.190Z,1.17
2022-10-11T17:29:03.253Z,1.58
2022-10-11T17:32:07.326Z,0.93
2022-10-11T17:35:12.054Z,1.27
2022-10-11T17:38:15.271Z,1.30
2022-10-11T17:41:19.627Z,1.27
2022-10-11T17:44:22.927Z,1.48
2022-10-11T17:47:26.674Z,1.50
2022-10-11T17:53:35.613Z,2.15
2022-10-11T17:56:40.588Z,1.50
2022-10-11T17:59:43.784Z,1.70
2022-10-11T18:02:49.155Z,2.00
2022-10-11T18:05:55.462Z,1.65
2022-10-11T18:09:02.756Z,2.03
2022-10-11T18:12:06.303Z,1.38
2022-10-11T18:15:10.823Z,1.85
2022-10-11T18:18:15.540Z,1.23
2022-10-11T18:21:20.407Z,1.52
2022-10-11T18:24:23.581Z,1.85
2022-10-11T18:27:26.694Z,0.98
2022-10-11T18:30:29.815Z,1.52
2022-10-11T18:33:33.013Z,1.08
2022-10-11T18:36:39.022Z,1.53
2022-10-11T18:39:42.045Z,1.45
2022-10-11T18:42:45.089Z,1.73
2022-10-11T18:45:48.213Z,2.25
2022-10-11T18:48:54.572Z,1.88
2022-10-11T18:51:59.082Z,2.00
2022-10-11T18:55:04.764Z,1.40
2022-10-11T18:58:07.866Z,1.10
2022-10-11T19:01:16.533Z,1.67
2022-10-11T19:04:20.497Z,1.80
2022-10-11T19:07:25.250Z,1.45
2022-10-11T19:10:28.407Z,1.38
2022-10-11T19:13:31.657Z,1.27
2022-10-11T19:16:39.141Z,1.87
2022-10-11T19:19:51.862Z,1.77
2022-10-11T19:22:56.540Z,1.27
2022-10-11T19:25:59.932Z,1.77
2022-10-11T19:29:06.528Z,3.10
2022-10-11T19:32:09.732Z,1.75
2022-10-11T19:35:17.662Z,1.92
2022-10-11T19:38:24.925Z,2.08
2022-10-11T19:41:29.180Z,1.58
2022-10-11T19:47:43.401Z,1.80
2022-10-11T19:50:46.551Z,1.90
2022-10-11T19:53:57.575Z,1.50
2022-10-11T19:57:00.800Z,1.75
2022-10-11T20:00:05.841Z,1.40
2022-10-11T20:03:09.270Z,1.63
2022-10-11T20:06:13.280Z,1.33
2022-10-11T20:09:29.152Z,1.42
2022-10-11T20:12:35.901Z,1.42
2022-10-11T20:15:39.777Z,1.30
2022-10-11T20:18:43.847Z,1.30
2022-10-11T20:21:48.302Z,1.20
2022-10-11T20:24:52.892Z,1.55
2022-10-11T20:27:55.964Z,1.73
2022-10-11T20:30:59.594Z,1.52
2022-10-11T20:34:07.748Z,1.23
2022-10-11T20:37:10.944Z,1.88
2022-10-11T20:40:16.795Z,1.75
2022-10-11T20:43:20.207Z,1.70
2022-10-11T20:46:26.909Z,1.85
2022-10-11T20:49:30.091Z,1.70
2022-10-11T20:52:33.816Z,1.52
2022-10-11T20:55:38.485Z,1.48
2022-10-11T20:58:42.597Z,1.50
2022-10-11T21:04:51.409Z,1.67
2022-10-11T21:07:54.509Z,1.83
2022-10-11T21:10:59.143Z,1.40
2022-10-11T21:14:05.673Z,1.70
2022-10-11T21:17:08.803Z,2.10
2022-10-11T21:20:12.178Z,2.00
2022-10-11T21:23:15.549Z,1.73
2022-10-11T21:26:20.278Z,2.50
2022-10-11T21:29:23.575Z,2.38
2022-10-11T21:32:26.727Z,2.70
2022-10-11T21:35:31.994Z,2.05
2022-10-11T21:38:35.650Z,2.20
2022-10-11T21:41:42.330Z,2.10
2022-10-11T21:44:45.595Z,2.25
2022-10-11T21:47:48.830Z,2.40
2022-10-11T21:50:54.672Z,2.65
2022-10-11T21:54:00.226Z,2.75
2022-10-11T21:57:05.186Z,2.40
2022-10-11T22:00:10.807Z,2.38
2022-10-11T22:03:13.973Z,2.15
2022-10-11T22:06:19.435Z,2.08
2022-10-11T22:09:22.519Z,2.72
2022-10-11T22:12:28.122Z,2.65
2022-10-11T22:15:35.230Z,2.42
2022-10-11T22:18:40.127Z,1.88
2022-10-11T22:21:45.447Z,2.45
2022-10-11T22:24:48.701Z,2.22
2022-10-11T22:27:53.329Z,1.77
2022-10-11T22:31:00.541Z,1.80
2022-10-11T22:34:04.027Z,1.85
2022-10-11T22:37:07.808Z,1.80
2022-10-11T22:40:11.499Z,2.55
2022-10-11T22:43:16.020Z,2.72
2022-10-11T22:46:19.285Z,2.60
2022-10-11T22:49:23.008Z,2.70
2022-10-11T22:52:26.424Z,2.22
2022-10-11T22:55:29.530Z,2.47
2022-10-11T22:58:34.048Z,1.98
2022-10-11T23:01:37.394Z,1.63
2022-10-11T23:04:40.590Z,2.40
2022-10-11T23:07:43.844Z,2.28
2022-10-11T23:10:47.073Z,1.80
2022-10-11T23:13:51.806Z,2.17
2022-10-11T23:16:54.976Z,2.03
2022-10-11T23:19:58.124Z,1.83
2022-10-11T23:23:01.306Z,1.92
2022-10-11T23:26:07.292Z,2.40
2022-10-11T23:29:11.769Z,1.75
2022-10-11T23:32:14.866Z,1.92
2022-10-11T23:35:18.245Z,1.90
2022-10-11T23:38:21.752Z,1.87
2022-10-11T23:41:28.151Z,1.80
2022-10-11T23:44:32.683Z,2.00
2022-10-11T23:47:35.945Z,2.00
2022-10-11T23:50:39.302Z,1.67
2022-10-11T23:53:42.707Z,1.63
2022-10-11T23:56:46.048Z,2.30
2022-10-11T23:59:50.630Z,2.20
